首页
METAR-TAF:

METAR-TAF

机场 :

馬雅世界國際機場

弗洛雷斯, 危地马拉

纬度: 16-54-50N, 经度: 089-51-59W, 海拔: 118米

当前天气观测

该预报发布于37分钟前的05:00 UTC
静风
温度 20°C
湿度 94%
气压 1021 hPa
能见度10公里或以上
散云层高于9000英尺

METAR: MGMM 230500Z 00000KT CAVOK 20/19 Q1021 A3015 SCT090

时间: 23:37 (05:37 UTC)

预报

该预报发布于37分钟前的05:00 UTC
预报有效从23日的 06点(UTC)到 24日的 06点(UTC)
风速节,风向
能见度10公里或以上
1500米以下无云,无积雨云
短暂存在
从 23日的 08点(UTC)到 23日的 16点(UTC)
多云层高于1200英尺
成为
从 23日的 16点(UTC)到 23日的 18点(UTC)
风速3节,风向多变
散云层高于2000英尺
短暂存在
从 23日的 20点(UTC)到 24日的 00点(UTC)
少量云层高于3000英尺
成为
从 24日的 01点(UTC)到 24日的 03点(UTC)
风速节,风向
少量云层高于2000英尺

TAF: MGMM 230500Z 2306/2406 00000KT CAVOK TX32/2320Z TN21/2312Z TEMPO 2308/2316 BKN012 BECMG 2316/2318 VRB03KT SCT020 TEMPO 2320/2400 FEW030 BECMG 2401/2403 00000KT FEW020

超过4000个机场的气象观测和天气预报(METAR&TAF报告)。

可查询的气象台以黄色和红色小点在地图上表示。

将鼠标移到小点上方,可查看气象台名称。

然后点击查看天气观测和预报。

如需切换地图:点击带黑十字的绿色按钮放大地图;点击带横线的绿色按钮缩小地图;或者点击绿色箭头查看邻近地区的地图。


METAR-TAF: